createdAt,value
2019-05-11T00:01:35.012Z,15.20
2019-05-11T00:05:40.688Z,15.10
2019-05-11T00:09:57.616Z,15.10
2019-05-11T00:13:55.844Z,15.20
2019-05-11T00:18:04.086Z,15.00
2019-05-11T00:22:14.198Z,14.50
2019-05-11T00:26:19.929Z,14.60
2019-05-11T00:30:26.185Z,14.70
2019-05-11T00:34:34.785Z,14.70
2019-05-11T00:38:40.425Z,14.70
2019-05-11T00:42:46.563Z,14.80
2019-05-11T00:46:53.130Z,14.70
2019-05-11T00:50:58.846Z,14.80
2019-05-11T00:55:04.570Z,14.60
2019-05-11T00:59:21.523Z,14.60
2019-05-11T01:03:19.041Z,14.60
2019-05-11T01:07:24.690Z,14.60
2019-05-11T01:11:32.636Z,14.50
2019-05-11T01:15:40.125Z,14.50
2019-05-11T01:19:47.711Z,14.50
2019-05-11T01:23:55.752Z,14.40
2019-05-11T01:28:01.735Z,14.30
2019-05-11T01:32:07.502Z,14.30
2019-05-11T01:36:14.403Z,14.30
2019-05-11T01:40:20.073Z,14.20
2019-05-11T01:44:26.756Z,14.10
2019-05-11T01:48:35.567Z,13.50
2019-05-11T01:52:41.424Z,13.30
2019-05-11T01:56:48.281Z,13.70
2019-05-11T02:00:55.360Z,13.60
2019-05-11T02:05:18.989Z,13.40
2019-05-11T02:09:26.090Z,13.70
2019-05-11T02:13:31.935Z,13.80
2019-05-11T02:17:39.743Z,13.80
2019-05-11T02:21:46.374Z,13.80
2019-05-11T02:25:52.038Z,13.70
2019-05-11T02:29:58.094Z,13.50
2019-05-11T02:34:03.761Z,13.60
2019-05-11T02:38:10.475Z,13.60
2019-05-11T02:42:16.144Z,13.60
2019-05-11T02:46:22.140Z,13.60
2019-05-11T02:50:28.757Z,13.60
2019-05-11T02:54:34.427Z,13.60
2019-05-11T02:58:40.228Z,13.60
2019-05-11T03:02:47.186Z,13.50
2019-05-11T03:06:53.037Z,13.50
2019-05-11T03:10:58.664Z,13.50
2019-05-11T03:15:04.393Z,13.50
2019-05-11T03:19:10.018Z,13.40
2019-05-11T03:23:16.151Z,13.40
2019-05-11T03:27:21.803Z,13.40
2019-05-11T03:31:28.865Z,13.40
2019-05-11T03:35:34.606Z,13.40
2019-05-11T03:39:40.352Z,13.40
2019-05-11T03:43:45.918Z,13.30
2019-05-11T03:47:51.642Z,13.30
2019-05-11T03:51:57.317Z,13.40
2019-05-11T03:56:03.301Z,13.30
2019-05-11T04:00:08.971Z,13.30
2019-05-11T04:04:16.580Z,13.30
2019-05-11T04:08:23.797Z,13.30
2019-05-11T04:12:34.996Z,13.20
2019-05-11T04:16:37.261Z,13.20
2019-05-11T04:20:43.476Z,13.20
2019-05-11T04:24:51.487Z,12.90
2019-05-11T04:28:58.273Z,12.40
2019-05-11T04:33:04.008Z,12.60
2019-05-11T04:37:10.911Z,12.10
2019-05-11T04:41:16.629Z,12.80
2019-05-11T04:45:22.261Z,12.40
2019-05-11T04:49:27.841Z,11.80
2019-05-11T04:53:33.523Z,12.50
2019-05-11T04:57:40.406Z,13.10
2019-05-11T05:01:47.088Z,13.30
2019-05-11T05:05:52.706Z,13.40
2019-05-11T05:09:58.401Z,13.40
2019-05-11T05:14:08.129Z,12.80
2019-05-11T05:18:11.422Z,13.20
2019-05-11T05:22:17.078Z,13.40
2019-05-11T05:26:24.109Z,13.50
2019-05-11T05:30:29.784Z,13.40
2019-05-11T05:34:35.470Z,13.50
2019-05-11T05:38:41.160Z,13.50
2019-05-11T05:42:47.291Z,13.50
2019-05-11T05:46:55.744Z,13.40
2019-05-11T05:51:02.651Z,13.50
2019-05-11T05:55:09.058Z,13.50
2019-05-11T05:59:14.784Z,13.50
2019-05-11T06:03:20.421Z,13.40
2019-05-11T06:07:26.160Z,13.30
2019-05-11T06:11:32.085Z,13.10
2019-05-11T06:15:37.906Z,12.90
2019-05-11T06:19:43.638Z,12.60
2019-05-11T06:23:49.335Z,12.50
2019-05-11T06:27:54.991Z,13.40
2019-05-11T06:32:00.738Z,13.90
2019-05-11T06:36:06.365Z,13.90
2019-05-11T06:40:11.992Z,14.20
2019-05-11T06:44:17.737Z,14.20
2019-05-11T06:48:23.389Z,14.30
2019-05-11T06:52:29.537Z,14.30
2019-05-11T06:56:35.315Z,14.40
2019-05-11T07:00:41.129Z,15.10
2019-05-11T07:04:48.808Z,15.50
2019-05-11T07:08:54.509Z,15.40
2019-05-11T07:13:00.121Z,15.70
2019-05-11T07:17:05.751Z,15.50
2019-05-11T07:21:11.425Z,15.50
2019-05-11T07:25:17.144Z,15.90
2019-05-11T07:29:22.758Z,16.00
2019-05-11T07:33:28.800Z,15.90
2019-05-11T07:37:34.510Z,16.30
2019-05-11T07:41:41.641Z,15.80
2019-05-11T07:45:47.966Z,16.00
2019-05-11T07:49:54.921Z,16.00
2019-05-11T07:54:00.518Z,16.10
2019-05-11T07:58:07.994Z,16.50
2019-05-11T08:02:13.464Z,16.70
2019-05-11T08:06:19.181Z,17.10
2019-05-11T08:10:24.740Z,16.90
2019-05-11T08:14:30.363Z,17.20
2019-05-11T08:18:38.515Z,16.90
2019-05-11T08:22:43.148Z,17.00
2019-05-11T08:26:48.990Z,17.00
2019-05-11T08:30:54.557Z,17.70
2019-05-11T08:35:00.818Z,17.80
2019-05-11T08:39:08.014Z,17.60
2019-05-11T08:43:13.591Z,17.80
2019-05-11T08:47:19.684Z,17.60
2019-05-11T08:51:27.807Z,18.00
2019-05-11T08:55:33.002Z,18.20
2019-05-11T08:59:38.843Z,18.40
2019-05-11T09:03:44.544Z,18.40
2019-05-11T09:07:50.213Z,18.70
2019-05-11T09:11:55.985Z,18.70
2019-05-11T09:16:01.956Z,19.00
2019-05-11T09:20:08.696Z,18.50
2019-05-11T09:24:18.988Z,18.80
2019-05-11T09:28:29.155Z,19.10
2019-05-11T09:32:34.256Z,19.00
2019-05-11T09:36:40.046Z,19.00
2019-05-11T09:40:47.910Z,19.50
2019-05-11T09:44:52.973Z,19.70
2019-05-11T09:48:59.170Z,19.80
2019-05-11T09:53:08.353Z,20.50
2019-05-11T09:57:13.098Z,20.30
2019-05-11T10:01:18.835Z,20.40
2019-05-11T10:05:24.523Z,19.90
2019-05-11T10:09:30.239Z,20.50
2019-05-11T10:13:38.264Z,20.60
2019-05-11T10:17:43.250Z,21.30
2019-05-11T10:21:50.220Z,21.70
2019-05-11T10:25:55.915Z,21.70
2019-05-11T10:30:01.810Z,21.30
2019-05-11T10:34:08.885Z,22.00
2019-05-11T10:38:14.563Z,21.00
2019-05-11T10:42:20.166Z,20.60
2019-05-11T10:46:28.232Z,21.50
2019-05-11T10:50:33.789Z,21.60
2019-05-11T10:54:41.245Z,21.60
2019-05-11T10:58:48.213Z,22.20
2019-05-11T11:02:54.224Z,22.30
2019-05-11T11:07:00.246Z,21.00
2019-05-11T11:11:07.875Z,21.70
2019-05-11T11:15:13.174Z,20.70
2019-05-11T11:19:18.795Z,21.70
2019-05-11T11:23:24.861Z,20.10
2019-05-11T11:27:30.615Z,20.90
2019-05-11T11:31:38.012Z,21.50
2019-05-11T11:35:44.592Z,20.30
2019-05-11T11:39:50.187Z,20.20
2019-05-11T11:43:58.622Z,21.80
2019-05-11T11:48:04.754Z,22.10
2019-05-11T11:52:10.434Z,22.50
2019-05-11T11:56:18.844Z,22.00
2019-05-11T12:00:23.541Z,21.30
2019-05-11T12:04:29.103Z,20.90
2019-05-11T12:08:34.840Z,20.90
2019-05-11T12:12:40.505Z,21.50
2019-05-11T12:16:48.013Z,22.30
2019-05-11T12:20:53.428Z,21.90
2019-05-11T12:24:59.091Z,21.90
2019-05-11T12:29:04.827Z,22.50
2019-05-11T12:33:10.805Z,21.90
2019-05-11T12:37:17.918Z,22.80
2019-05-11T12:41:23.765Z,22.90
2019-05-11T12:45:29.700Z,22.60
2019-05-11T12:49:35.488Z,23.00
2019-05-11T12:53:41.858Z,23.00
2019-05-11T12:57:48.152Z,23.00
2019-05-11T13:01:54.098Z,22.80
2019-05-11T13:06:00.026Z,21.90
2019-05-11T13:10:08.282Z,23.20
2019-05-11T13:14:14.009Z,23.70
2019-05-11T13:18:19.840Z,24.00
2019-05-11T13:22:25.525Z,22.30
2019-05-11T13:26:31.489Z,23.40
2019-05-11T13:30:38.215Z,23.20
2019-05-11T13:34:44.871Z,22.10
2019-05-11T13:38:51.749Z,21.40
2019-05-11T13:42:58.196Z,23.00
2019-05-11T13:47:04.173Z,23.80
2019-05-11T13:51:09.868Z,24.00
2019-05-11T13:55:15.466Z,23.60
2019-05-11T13:59:21.115Z,23.30
2019-05-11T14:03:27.682Z,22.50
2019-05-11T14:07:33.533Z,20.50
2019-05-11T14:11:39.333Z,22.00
2019-05-11T14:15:45.147Z,22.90
2019-05-11T14:19:50.824Z,22.80
2019-05-11T14:23:58.646Z,23.10
2019-05-11T14:28:03.743Z,22.20
2019-05-11T14:32:09.603Z,21.60
2019-05-11T14:36:18.068Z,20.90
2019-05-11T14:40:22.744Z,21.80
2019-05-11T14:44:28.679Z,22.70
2019-05-11T14:48:35.321Z,20.70
2019-05-11T14:52:40.978Z,21.80
2019-05-11T14:56:48.111Z,20.70
2019-05-11T15:00:53.985Z,21.20
2019-05-11T15:04:59.627Z,20.90
2019-05-11T15:09:07.864Z,20.70
2019-05-11T15:13:13.649Z,20.60
2019-05-11T15:17:19.243Z,21.20
2019-05-11T15:21:24.884Z,21.60
2019-05-11T15:25:30.597Z,21.00
2019-05-11T15:29:37.730Z,22.10
2019-05-11T15:33:43.529Z,19.90
2019-05-11T15:37:49.373Z,20.40
2019-05-11T15:42:07.244Z,21.80
2019-05-11T15:46:02.766Z,23.10
2019-05-11T15:50:08.483Z,23.00
2019-05-11T15:54:14.168Z,21.00
2019-05-11T15:58:21.788Z,21.90
2019-05-11T16:02:28.879Z,22.80
2019-05-11T16:06:34.618Z,24.30
2019-05-11T16:10:41.274Z,24.60
2019-05-11T16:14:48.534Z,24.30
2019-05-11T16:19:08.626Z,24.20
2019-05-11T16:23:01.940Z,24.40
2019-05-11T16:27:08.760Z,22.70
2019-05-11T16:31:14.632Z,20.90
2019-05-11T16:35:20.367Z,20.70
2019-05-11T16:39:27.938Z,21.00
2019-05-11T16:43:33.885Z,20.90
2019-05-11T16:47:39.512Z,19.40
2019-05-11T16:51:47.468Z,19.40
2019-05-11T16:55:53.275Z,19.90
2019-05-11T16:59:58.857Z,22.10
2019-05-11T17:04:04.691Z,23.40
2019-05-11T17:08:10.347Z,23.60
2019-05-11T17:12:18.022Z,23.70
2019-05-11T17:16:28.369Z,23.80
2019-05-11T17:20:33.629Z,23.20
2019-05-11T17:24:40.915Z,23.50
2019-05-11T17:28:48.808Z,23.50
2019-05-11T17:32:54.286Z,23.30
2019-05-11T17:37:00.238Z,23.20
2019-05-11T17:41:08.326Z,23.30
2019-05-11T17:45:13.592Z,23.10
2019-05-11T17:49:19.336Z,22.70
2019-05-11T17:53:25.083Z,23.00
2019-05-11T17:57:30.816Z,23.10
2019-05-11T18:01:39.106Z,22.90
2019-05-11T18:05:48.568Z,22.60
2019-05-11T18:09:54.675Z,22.40
2019-05-11T18:14:00.521Z,22.30
2019-05-11T18:18:09.304Z,21.10
2019-05-11T18:22:17.938Z,20.70
2019-05-11T18:26:24.725Z,20.40
2019-05-11T18:30:30.554Z,19.50
2019-05-11T18:34:37.708Z,20.30
2019-05-11T18:38:48.557Z,19.80
2019-05-11T18:42:54.672Z,20.60
2019-05-11T18:47:00.335Z,19.30
2019-05-11T18:51:08.663Z,19.10
2019-05-11T18:55:14.746Z,19.70
2019-05-11T18:59:23.131Z,19.00
2019-05-11T19:03:30.657Z,18.90
2019-05-11T19:07:38.911Z,18.70
2019-05-11T19:11:45.375Z,18.60
2019-05-11T19:15:51.744Z,18.00
2019-05-11T19:19:57.970Z,18.10
2019-05-11T19:24:06.070Z,17.50
2019-05-11T19:28:11.701Z,16.70
2019-05-11T19:32:19.109Z,17.80
2019-05-11T19:36:25.008Z,16.80
2019-05-11T19:40:30.928Z,17.20
2019-05-11T19:44:38.593Z,17.20
2019-05-11T19:48:47.413Z,17.10
2019-05-11T19:52:53.659Z,17.00
2019-05-11T19:56:59.936Z,16.70
2019-05-11T20:01:08.479Z,16.70
2019-05-11T20:05:13.142Z,16.30
2019-05-11T20:09:19.218Z,16.50
2019-05-11T20:13:25.261Z,15.50
2019-05-11T20:17:30.997Z,16.10
2019-05-11T20:21:38.212Z,16.00
2019-05-11T20:25:44.127Z,15.70
2019-05-11T20:29:51.732Z,15.80
2019-05-11T20:33:58.784Z,15.50
2019-05-11T20:38:04.588Z,14.70
2019-05-11T20:42:10.266Z,15.30
2019-05-11T20:46:18.458Z,14.40
2019-05-11T20:50:24.495Z,15.20
2019-05-11T20:54:30.304Z,14.20
2019-05-11T20:58:59.315Z,14.90
2019-05-11T21:03:08.016Z,14.70
2019-05-11T21:07:13.582Z,14.90
2019-05-11T21:11:19.624Z,14.30
2019-05-11T21:15:28.218Z,13.60
2019-05-11T21:19:33.943Z,13.80
2019-05-11T21:23:41.740Z,13.70
2019-05-11T21:27:48.661Z,13.40
2019-05-11T21:31:54.902Z,13.60
2019-05-11T21:36:02.597Z,13.30
2019-05-11T21:40:09.622Z,13.70
2019-05-11T21:44:18.856Z,13.80
2019-05-11T21:48:25.219Z,13.50
2019-05-11T21:52:34.020Z,13.40
2019-05-11T21:56:40.866Z,13.40
2019-05-11T22:00:47.898Z,13.40
2019-05-11T22:04:55.140Z,13.00
2019-05-11T22:09:01.902Z,13.60
2019-05-11T22:13:09.020Z,13.40
2019-05-11T22:17:15.049Z,13.10
2019-05-11T22:21:20.917Z,12.90
2019-05-11T22:25:29.001Z,13.30
2019-05-11T22:29:34.830Z,12.90
2019-05-11T22:33:40.878Z,13.30
2019-05-11T22:37:48.772Z,13.30
2019-05-11T22:41:53.925Z,13.10
2019-05-11T22:45:59.755Z,13.50
2019-05-11T22:50:07.902Z,13.00
2019-05-11T22:54:14.066Z,13.10
2019-05-11T22:58:22.012Z,13.20
2019-05-11T23:02:28.658Z,12.90
2019-05-11T23:06:34.370Z,13.20
2019-05-11T23:10:40.173Z,13.20
2019-05-11T23:15:08.068Z,13.10
2019-05-11T23:19:18.117Z,12.90
2019-05-11T23:23:21.902Z,13.10
2019-05-11T23:27:29.719Z,13.00
2019-05-11T23:31:38.138Z,12.70
2019-05-11T23:35:43.336Z,12.70
2019-05-11T23:39:50.224Z,12.70
2019-05-11T23:43:58.207Z,12.60
2019-05-11T23:48:03.306Z,12.70
2019-05-11T23:52:08.984Z,12.70
2019-05-11T23:56:14.699Z,12.50
